sensor_id;sensor_type;location;lat;lon;timestamp;P1;durP1;ratioP1;P2;durP2;ratioP2
57790;SDS011;43621;51.798;21.588;2023-05-07T00:02:05;6.50;;;2.60;;
57790;SDS011;43621;51.798;21.588;2023-05-07T00:06:06;7.70;;;4.30;;
57790;SDS011;43621;51.798;21.588;2023-05-07T00:10:08;5.10;;;2.40;;
57790;SDS011;43621;51.798;21.588;2023-05-07T00:14:09;14.70;;;6.30;;
57790;SDS011;43621;51.798;21.588;2023-05-07T00:18:10;5.40;;;2.40;;
57790;SDS011;43621;51.798;21.588;2023-05-07T00:22:11;6.20;;;3.10;;
57790;SDS011;43621;51.798;21.588;2023-05-07T00:26:12;5.40;;;2.30;;
57790;SDS011;43621;51.798;21.588;2023-05-07T00:30:13;5.90;;;2.70;;
57790;SDS011;43621;51.798;21.588;2023-05-07T00:34:15;3.30;;;1.90;;
57790;SDS011;43621;51.798;21.588;2023-05-07T00:38:16;4.20;;;2.60;;
57790;SDS011;43621;51.798;21.588;2023-05-07T00:42:17;5.90;;;2.00;;
57790;SDS011;43621;51.798;21.588;2023-05-07T00:46:20;2.90;;;1.60;;
57790;SDS011;43621;51.798;21.588;2023-05-07T00:50:21;4.80;;;2.40;;
57790;SDS011;43621;51.798;21.588;2023-05-07T00:54:23;21.80;;;9.10;;
57790;SDS011;43621;51.798;21.588;2023-05-07T00:58:24;15.20;;;6.80;;
57790;SDS011;43621;51.798;21.588;2023-05-07T01:02:25;3.20;;;2.00;;
57790;SDS011;43621;51.798;21.588;2023-05-07T01:06:27;4.20;;;1.90;;
57790;SDS011;43621;51.798;21.588;2023-05-07T01:10:30;3.20;;;1.80;;
57790;SDS011;43621;51.798;21.588;2023-05-07T01:14:31;15.20;;;7.20;;
57790;SDS011;43621;51.798;21.588;2023-05-07T01:18:33;4.00;;;2.20;;
57790;SDS011;43621;51.798;21.588;2023-05-07T01:22:35;5.10;;;2.40;;
57790;SDS011;43621;51.798;21.588;2023-05-07T01:26:39;3.20;;;1.60;;
57790;SDS011;43621;51.798;21.588;2023-05-07T01:30:41;3.80;;;2.00;;
57790;SDS011;43621;51.798;21.588;2023-05-07T01:34:45;4.90;;;2.00;;
57790;SDS011;43621;51.798;21.588;2023-05-07T01:38:49;4.30;;;1.80;;
57790;SDS011;43621;51.798;21.588;2023-05-07T01:42:50;11.10;;;5.50;;
57790;SDS011;43621;51.798;21.588;2023-05-07T01:46:51;10.00;;;4.40;;
57790;SDS011;43621;51.798;21.588;2023-05-07T01:50:54;5.00;;;2.10;;
57790;SDS011;43621;51.798;21.588;2023-05-07T01:54:56;4.70;;;2.40;;
57790;SDS011;43621;51.798;21.588;2023-05-07T01:58:57;3.70;;;2.10;;
57790;SDS011;43621;51.798;21.588;2023-05-07T02:02:58;8.40;;;3.20;;
57790;SDS011;43621;51.798;21.588;2023-05-07T02:06:59;5.20;;;2.10;;
57790;SDS011;43621;51.798;21.588;2023-05-07T02:11:00;1.90;;;1.20;;
57790;SDS011;43621;51.798;21.588;2023-05-07T02:15:02;3.10;;;1.70;;
57790;SDS011;43621;51.798;21.588;2023-05-07T02:19:03;3.60;;;1.80;;
57790;SDS011;43621;51.798;21.588;2023-05-07T02:23:04;6.10;;;3.10;;
57790;SDS011;43621;51.798;21.588;2023-05-07T02:27:05;3.70;;;2.00;;
57790;SDS011;43621;51.798;21.588;2023-05-07T02:31:06;4.10;;;2.50;;
57790;SDS011;43621;51.798;21.588;2023-05-07T02:35:07;8.80;;;4.60;;
57790;SDS011;43621;51.798;21.588;2023-05-07T02:39:08;5.70;;;2.90;;
57790;SDS011;43621;51.798;21.588;2023-05-07T02:43:09;2.80;;;1.90;;
57790;SDS011;43621;51.798;21.588;2023-05-07T02:47:10;5.80;;;2.60;;
57790;SDS011;43621;51.798;21.588;2023-05-07T02:51:13;3.10;;;2.00;;
57790;SDS011;43621;51.798;21.588;2023-05-07T02:55:14;6.90;;;2.80;;
57790;SDS011;43621;51.798;21.588;2023-05-07T02:59:16;4.50;;;2.60;;
57790;SDS011;43621;51.798;21.588;2023-05-07T03:03:17;4.70;;;1.90;;
57790;SDS011;43621;51.798;21.588;2023-05-07T03:07:18;3.70;;;1.90;;
57790;SDS011;43621;51.798;21.588;2023-05-07T03:11:19;5.40;;;2.80;;
57790;SDS011;43621;51.798;21.588;2023-05-07T03:15:20;4.10;;;1.90;;
57790;SDS011;43621;51.798;21.588;2023-05-07T03:19:22;3.00;;;1.60;;
57790;SDS011;43621;51.798;21.588;2023-05-07T03:23:23;3.40;;;2.20;;
57790;SDS011;43621;51.798;21.588;2023-05-07T03:27:24;2.80;;;1.70;;
57790;SDS011;43621;51.798;21.588;2023-05-07T03:31:25;4.30;;;2.00;;
57790;SDS011;43621;51.798;21.588;2023-05-07T03:35:26;6.20;;;3.10;;
57790;SDS011;43621;51.798;21.588;2023-05-07T03:39:27;2.80;;;1.60;;
57790;SDS011;43621;51.798;21.588;2023-05-07T03:43:29;6.10;;;4.10;;
57790;SDS011;43621;51.798;21.588;2023-05-07T03:47:30;5.40;;;2.50;;
57790;SDS011;43621;51.798;21.588;2023-05-07T03:51:31;3.50;;;2.10;;
57790;SDS011;43621;51.798;21.588;2023-05-07T03:55:32;3.80;;;1.80;;
57790;SDS011;43621;51.798;21.588;2023-05-07T03:59:33;4.30;;;2.20;;
57790;SDS011;43621;51.798;21.588;2023-05-07T04:03:34;3.60;;;2.10;;
57790;SDS011;43621;51.798;21.588;2023-05-07T04:07:35;5.50;;;1.70;;
57790;SDS011;43621;51.798;21.588;2023-05-07T04:11:36;3.30;;;1.60;;
57790;SDS011;43621;51.798;21.588;2023-05-07T04:15:37;2.50;;;1.60;;
57790;SDS011;43621;51.798;21.588;2023-05-07T04:19:39;4.40;;;1.50;;
57790;SDS011;43621;51.798;21.588;2023-05-07T04:23:40;1.80;;;1.40;;
57790;SDS011;43621;51.798;21.588;2023-05-07T04:27:41;2.30;;;1.40;;
57790;SDS011;43621;51.798;21.588;2023-05-07T04:31:42;3.00;;;1.90;;
57790;SDS011;43621;51.798;21.588;2023-05-07T04:35:44;5.70;;;2.50;;
57790;SDS011;43621;51.798;21.588;2023-05-07T04:39:46;3.30;;;2.40;;
57790;SDS011;43621;51.798;21.588;2023-05-07T04:43:48;4.80;;;2.80;;
57790;SDS011;43621;51.798;21.588;2023-05-07T04:47:49;4.00;;;2.10;;
57790;SDS011;43621;51.798;21.588;2023-05-07T04:51:50;2.70;;;1.80;;
57790;SDS011;43621;51.798;21.588;2023-05-07T04:55:54;4.80;;;2.20;;
57790;SDS011;43621;51.798;21.588;2023-05-07T04:59:57;3.20;;;1.80;;
57790;SDS011;43621;51.798;21.588;2023-05-07T05:03:58;2.90;;;1.60;;
57790;SDS011;43621;51.798;21.588;2023-05-07T05:08:01;4.20;;;1.60;;
57790;SDS011;43621;51.798;21.588;2023-05-07T05:12:02;2.50;;;1.80;;
57790;SDS011;43621;51.798;21.588;2023-05-07T05:16:03;3.90;;;2.00;;
57790;SDS011;43621;51.798;21.588;2023-05-07T05:20:05;2.80;;;1.70;;
57790;SDS011;43621;51.798;21.588;2023-05-07T05:24:06;4.30;;;2.60;;
57790;SDS011;43621;51.798;21.588;2023-05-07T05:28:08;3.90;;;2.00;;
57790;SDS011;43621;51.798;21.588;2023-05-07T05:32:09;6.30;;;3.20;;
57790;SDS011;43621;51.798;21.588;2023-05-07T05:36:10;3.00;;;1.80;;
57790;SDS011;43621;51.798;21.588;2023-05-07T05:40:13;2.60;;;1.60;;
57790;SDS011;43621;51.798;21.588;2023-05-07T05:44:14;5.30;;;2.50;;
57790;SDS011;43621;51.798;21.588;2023-05-07T05:48:15;3.10;;;1.70;;
57790;SDS011;43621;51.798;21.588;2023-05-07T05:52:16;2.80;;;1.80;;
57790;SDS011;43621;51.798;21.588;2023-05-07T05:56:18;2.70;;;1.60;;
57790;SDS011;43621;51.798;21.588;2023-05-07T06:00:19;2.40;;;1.20;;
57790;SDS011;43621;51.798;21.588;2023-05-07T06:04:23;4.00;;;1.80;;
57790;SDS011;43621;51.798;21.588;2023-05-07T06:08:24;2.20;;;1.60;;
57790;SDS011;43621;51.798;21.588;2023-05-07T06:12:25;3.90;;;1.90;;
57790;SDS011;43621;51.798;21.588;2023-05-07T06:16:26;3.10;;;1.50;;
57790;SDS011;43621;51.798;21.588;2023-05-07T06:20:27;2.60;;;1.80;;
57790;SDS011;43621;51.798;21.588;2023-05-07T06:24:28;5.20;;;2.40;;
57790;SDS011;43621;51.798;21.588;2023-05-07T06:28:29;4.90;;;2.20;;
57790;SDS011;43621;51.798;21.588;2023-05-07T06:32:36;4.30;;;2.70;;
57790;SDS011;43621;51.798;21.588;2023-05-07T06:36:37;2.50;;;1.50;;
57790;SDS011;43621;51.798;21.588;2023-05-07T06:40:38;3.50;;;2.10;;
57790;SDS011;43621;51.798;21.588;2023-05-07T06:44:39;3.50;;;1.80;;
57790;SDS011;43621;51.798;21.588;2023-05-07T06:48:40;3.70;;;1.80;;
57790;SDS011;43621;51.798;21.588;2023-05-07T06:52:42;3.30;;;1.90;;
57790;SDS011;43621;51.798;21.588;2023-05-07T06:56:43;4.70;;;2.50;;
57790;SDS011;43621;51.798;21.588;2023-05-07T07:00:44;7.20;;;3.00;;
57790;SDS011;43621;51.798;21.588;2023-05-07T07:04:46;7.30;;;2.70;;
57790;SDS011;43621;51.798;21.588;2023-05-07T07:08:47;8.30;;;4.90;;
57790;SDS011;43621;51.798;21.588;2023-05-07T07:12:49;5.50;;;2.60;;
57790;SDS011;43621;51.798;21.588;2023-05-07T07:16:50;4.40;;;1.70;;
57790;SDS011;43621;51.798;21.588;2023-05-07T07:20:51;6.00;;;2.10;;
57790;SDS011;43621;51.798;21.588;2023-05-07T07:24:52;7.90;;;3.30;;
57790;SDS011;43621;51.798;21.588;2023-05-07T07:28:53;4.10;;;2.20;;
57790;SDS011;43621;51.798;21.588;2023-05-07T07:32:55;3.30;;;2.50;;
57790;SDS011;43621;51.798;21.588;2023-05-07T07:37:01;4.00;;;2.70;;
57790;SDS011;43621;51.798;21.588;2023-05-07T07:41:07;6.00;;;2.90;;
57790;SDS011;43621;51.798;21.588;2023-05-07T07:45:09;8.70;;;6.10;;
57790;SDS011;43621;51.798;21.588;2023-05-07T07:49:11;7.00;;;4.20;;
57790;SDS011;43621;51.798;21.588;2023-05-07T07:53:12;7.50;;;3.60;;
57790;SDS011;43621;51.798;21.588;2023-05-07T07:57:13;8.40;;;5.00;;
57790;SDS011;43621;51.798;21.588;2023-05-07T08:01:14;9.30;;;6.40;;
57790;SDS011;43621;51.798;21.588;2023-05-07T08:05:15;18.40;;;11.10;;
57790;SDS011;43621;51.798;21.588;2023-05-07T08:09:16;15.20;;;12.70;;
57790;SDS011;43621;51.798;21.588;2023-05-07T08:13:17;12.30;;;5.50;;
57790;SDS011;43621;51.798;21.588;2023-05-07T08:17:19;7.30;;;4.70;;
57790;SDS011;43621;51.798;21.588;2023-05-07T08:21:22;39.50;;;16.90;;
57790;SDS011;43621;51.798;21.588;2023-05-07T08:25:24;87.90;;;28.20;;
57790;SDS011;43621;51.798;21.588;2023-05-07T08:29:25;9.70;;;5.90;;
57790;SDS011;43621;51.798;21.588;2023-05-07T08:33:26;16.30;;;9.60;;
57790;SDS011;43621;51.798;21.588;2023-05-07T08:37:28;34.80;;;11.80;;
57790;SDS011;43621;51.798;21.588;2023-05-07T08:41:29;25.10;;;11.00;;
57790;SDS011;43621;51.798;21.588;2023-05-07T08:45:30;66.20;;;20.80;;
57790;SDS011;43621;51.798;21.588;2023-05-07T08:49:34;25.90;;;10.50;;
57790;SDS011;43621;51.798;21.588;2023-05-07T08:53:36;18.90;;;9.60;;
57790;SDS011;43621;51.798;21.588;2023-05-07T08:57:41;97.70;;;34.30;;
57790;SDS011;43621;51.798;21.588;2023-05-07T09:01:42;170.50;;;55.30;;
57790;SDS011;43621;51.798;21.588;2023-05-07T09:05:43;95.30;;;37.10;;
57790;SDS011;43621;51.798;21.588;2023-05-07T09:09:44;45.70;;;17.80;;
57790;SDS011;43621;51.798;21.588;2023-05-07T09:13:46;40.50;;;13.30;;
57790;SDS011;43621;51.798;21.588;2023-05-07T09:17:47;24.70;;;9.10;;
57790;SDS011;43621;51.798;21.588;2023-05-07T09:21:48;9.70;;;4.20;;
57790;SDS011;43621;51.798;21.588;2023-05-07T09:25:49;17.30;;;6.50;;
57790;SDS011;43621;51.798;21.588;2023-05-07T09:29:50;68.10;;;19.90;;
57790;SDS011;43621;51.798;21.588;2023-05-07T09:33:52;19.90;;;7.60;;
57790;SDS011;43621;51.798;21.588;2023-05-07T09:37:54;44.50;;;14.90;;
57790;SDS011;43621;51.798;21.588;2023-05-07T09:41:57;9.70;;;4.30;;
57790;SDS011;43621;51.798;21.588;2023-05-07T09:46:00;15.50;;;6.50;;
57790;SDS011;43621;51.798;21.588;2023-05-07T09:50:04;12.80;;;5.20;;
57790;SDS011;43621;51.798;21.588;2023-05-07T09:54:09;15.20;;;4.50;;
57790;SDS011;43621;51.798;21.588;2023-05-07T09:58:11;9.40;;;3.70;;
57790;SDS011;43621;51.798;21.588;2023-05-07T10:02:13;12.50;;;4.90;;
57790;SDS011;43621;51.798;21.588;2023-05-07T10:06:16;8.10;;;4.30;;
57790;SDS011;43621;51.798;21.588;2023-05-07T10:10:18;6.90;;;3.70;;
57790;SDS011;43621;51.798;21.588;2023-05-07T10:14:20;25.30;;;11.30;;
57790;SDS011;43621;51.798;21.588;2023-05-07T10:18:22;13.20;;;7.40;;
57790;SDS011;43621;51.798;21.588;2023-05-07T10:22:34;7.40;;;4.60;;
57790;SDS011;43621;51.798;21.588;2023-05-07T10:26:43;9.60;;;5.90;;
57790;SDS011;43621;51.798;21.588;2023-05-07T10:35:02;17.20;;;8.10;;
57790;SDS011;43621;51.798;21.588;2023-05-07T10:39:06;25.30;;;9.80;;
57790;SDS011;43621;51.798;21.588;2023-05-07T10:43:08;29.70;;;9.80;;
57790;SDS011;43621;51.798;21.588;2023-05-07T10:47:13;15.90;;;6.90;;
57790;SDS011;43621;51.798;21.588;2023-05-07T10:51:20;13.30;;;6.60;;
57790;SDS011;43621;51.798;21.588;2023-05-07T10:55:22;10.60;;;4.70;;
57790;SDS011;43621;51.798;21.588;2023-05-07T10:59:30;8.40;;;3.90;;
57790;SDS011;43621;51.798;21.588;2023-05-07T11:03:33;15.90;;;6.90;;
57790;SDS011;43621;51.798;21.588;2023-05-07T11:07:34;12.80;;;4.20;;
57790;SDS011;43621;51.798;21.588;2023-05-07T11:11:44;10.50;;;4.80;;
57790;SDS011;43621;51.798;21.588;2023-05-07T11:15:53;10.30;;;5.50;;
57790;SDS011;43621;51.798;21.588;2023-05-07T11:19:55;10.50;;;4.00;;
57790;SDS011;43621;51.798;21.588;2023-05-07T11:23:56;8.50;;;4.30;;
57790;SDS011;43621;51.798;21.588;2023-05-07T11:28:04;6.70;;;3.90;;
57790;SDS011;43621;51.798;21.588;2023-05-07T11:32:06;11.10;;;4.60;;
57790;SDS011;43621;51.798;21.588;2023-05-07T11:36:08;16.60;;;7.80;;
57790;SDS011;43621;51.798;21.588;2023-05-07T11:40:09;20.30;;;6.90;;
57790;SDS011;43621;51.798;21.588;2023-05-07T11:44:14;7.80;;;4.00;;
57790;SDS011;43621;51.798;21.588;2023-05-07T11:48:15;9.90;;;5.20;;
57790;SDS011;43621;51.798;21.588;2023-05-07T11:52:18;10.00;;;6.10;;
57790;SDS011;43621;51.798;21.588;2023-05-07T11:56:20;17.10;;;8.10;;
57790;SDS011;43621;51.798;21.588;2023-05-07T12:00:21;67.20;;;33.40;;
57790;SDS011;43621;51.798;21.588;2023-05-07T12:04:22;92.10;;;50.10;;
57790;SDS011;43621;51.798;21.588;2023-05-07T12:08:23;30.00;;;16.60;;
57790;SDS011;43621;51.798;21.588;2023-05-07T12:12:25;7.50;;;5.20;;
57790;SDS011;43621;51.798;21.588;2023-05-07T12:16:27;5.90;;;4.30;;
57790;SDS011;43621;51.798;21.588;2023-05-07T12:20:29;6.90;;;4.40;;
57790;SDS011;43621;51.798;21.588;2023-05-07T12:28:44;5.70;;;4.30;;
57790;SDS011;43621;51.798;21.588;2023-05-07T12:32:45;7.40;;;3.50;;
57790;SDS011;43621;51.798;21.588;2023-05-07T12:36:46;9.00;;;6.00;;
57790;SDS011;43621;51.798;21.588;2023-05-07T12:40:53;8.90;;;5.60;;
57790;SDS011;43621;51.798;21.588;2023-05-07T12:44:55;16.30;;;10.90;;
57790;SDS011;43621;51.798;21.588;2023-05-07T12:48:56;6.80;;;5.10;;
57790;SDS011;43621;51.798;21.588;2023-05-07T12:52:57;12.20;;;7.70;;
57790;SDS011;43621;51.798;21.588;2023-05-07T12:57:02;9.60;;;7.50;;
57790;SDS011;43621;51.798;21.588;2023-05-07T13:01:07;7.80;;;5.90;;
57790;SDS011;43621;51.798;21.588;2023-05-07T13:05:10;11.30;;;6.10;;
57790;SDS011;43621;51.798;21.588;2023-05-07T13:09:11;6.40;;;3.80;;
57790;SDS011;43621;51.798;21.588;2023-05-07T13:13:12;6.80;;;4.60;;
57790;SDS011;43621;51.798;21.588;2023-05-07T13:17:13;10.30;;;5.60;;
57790;SDS011;43621;51.798;21.588;2023-05-07T13:21:14;5.60;;;3.30;;
57790;SDS011;43621;51.798;21.588;2023-05-07T13:25:16;11.30;;;5.40;;
57790;SDS011;43621;51.798;21.588;2023-05-07T13:29:17;7.90;;;4.80;;
57790;SDS011;43621;51.798;21.588;2023-05-07T13:33:18;11.50;;;6.80;;
57790;SDS011;43621;51.798;21.588;2023-05-07T13:37:19;11.80;;;7.10;;
57790;SDS011;43621;51.798;21.588;2023-05-07T13:41:20;6.00;;;4.30;;
57790;SDS011;43621;51.798;21.588;2023-05-07T13:45:21;8.90;;;5.20;;
57790;SDS011;43621;51.798;21.588;2023-05-07T13:49:26;6.50;;;3.80;;
57790;SDS011;43621;51.798;21.588;2023-05-07T13:53:27;12.50;;;8.80;;
57790;SDS011;43621;51.798;21.588;2023-05-07T13:57:28;10.90;;;5.30;;
57790;SDS011;43621;51.798;21.588;2023-05-07T14:01:30;11.50;;;6.10;;
57790;SDS011;43621;51.798;21.588;2023-05-07T14:05:31;8.10;;;4.60;;
57790;SDS011;43621;51.798;21.588;2023-05-07T14:09:32;8.20;;;5.10;;
57790;SDS011;43621;51.798;21.588;2023-05-07T14:13:34;6.00;;;4.40;;
57790;SDS011;43621;51.798;21.588;2023-05-07T14:17:35;7.80;;;5.10;;
57790;SDS011;43621;51.798;21.588;2023-05-07T14:21:36;23.80;;;21.50;;
57790;SDS011;43621;51.798;21.588;2023-05-07T14:25:37;11.00;;;8.60;;
57790;SDS011;43621;51.798;21.588;2023-05-07T14:29:38;13.60;;;7.70;;
57790;SDS011;43621;51.798;21.588;2023-05-07T14:33:39;8.20;;;4.70;;
57790;SDS011;43621;51.798;21.588;2023-05-07T14:37:40;5.30;;;3.40;;
57790;SDS011;43621;51.798;21.588;2023-05-07T14:41:41;25.10;;;18.10;;
57790;SDS011;43621;51.798;21.588;2023-05-07T14:45:42;12.20;;;10.10;;
57790;SDS011;43621;51.798;21.588;2023-05-07T14:49:43;5.90;;;3.80;;
57790;SDS011;43621;51.798;21.588;2023-05-07T14:53:44;9.70;;;3.40;;
57790;SDS011;43621;51.798;21.588;2023-05-07T14:57:45;7.10;;;4.40;;
57790;SDS011;43621;51.798;21.588;2023-05-07T15:01:47;10.00;;;3.30;;
57790;SDS011;43621;51.798;21.588;2023-05-07T15:05:48;28.60;;;13.90;;
57790;SDS011;43621;51.798;21.588;2023-05-07T15:09:52;27.50;;;15.50;;
57790;SDS011;43621;51.798;21.588;2023-05-07T15:13:53;7.20;;;3.60;;
57790;SDS011;43621;51.798;21.588;2023-05-07T15:17:54;12.90;;;9.10;;
57790;SDS011;43621;51.798;21.588;2023-05-07T15:21:56;6.50;;;4.90;;
57790;SDS011;43621;51.798;21.588;2023-05-07T15:25:58;5.00;;;3.10;;
57790;SDS011;43621;51.798;21.588;2023-05-07T15:29:59;4.50;;;2.50;;
57790;SDS011;43621;51.798;21.588;2023-05-07T15:34:01;7.70;;;4.30;;
57790;SDS011;43621;51.798;21.588;2023-05-07T15:38:02;6.50;;;4.20;;
57790;SDS011;43621;51.798;21.588;2023-05-07T15:42:03;8.40;;;5.30;;
57790;SDS011;43621;51.798;21.588;2023-05-07T15:46:05;5.80;;;3.30;;
57790;SDS011;43621;51.798;21.588;2023-05-07T15:50:06;6.80;;;3.70;;
57790;SDS011;43621;51.798;21.588;2023-05-07T15:54:07;6.00;;;3.30;;
57790;SDS011;43621;51.798;21.588;2023-05-07T15:58:09;10.80;;;6.70;;
57790;SDS011;43621;51.798;21.588;2023-05-07T16:02:10;6.30;;;4.10;;
57790;SDS011;43621;51.798;21.588;2023-05-07T16:06:11;6.70;;;3.70;;
57790;SDS011;43621;51.798;21.588;2023-05-07T16:10:12;5.10;;;3.00;;
57790;SDS011;43621;51.798;21.588;2023-05-07T16:14:13;8.80;;;4.50;;
57790;SDS011;43621;51.798;21.588;2023-05-07T16:18:14;7.30;;;3.70;;
57790;SDS011;43621;51.798;21.588;2023-05-07T16:22:16;27.60;;;11.90;;
57790;SDS011;43621;51.798;21.588;2023-05-07T16:26:17;18.80;;;8.00;;
57790;SDS011;43621;51.798;21.588;2023-05-07T16:30:18;5.00;;;3.10;;
57790;SDS011;43621;51.798;21.588;2023-05-07T16:34:19;5.80;;;3.70;;
57790;SDS011;43621;51.798;21.588;2023-05-07T16:38:22;7.20;;;3.50;;
57790;SDS011;43621;51.798;21.588;2023-05-07T16:42:23;8.20;;;3.10;;
57790;SDS011;43621;51.798;21.588;2023-05-07T16:46:24;13.50;;;4.90;;
57790;SDS011;43621;51.798;21.588;2023-05-07T16:50:26;63.80;;;16.50;;
57790;SDS011;43621;51.798;21.588;2023-05-07T16:54:27;135.20;;;63.60;;
57790;SDS011;43621;51.798;21.588;2023-05-07T16:58:28;11.40;;;6.30;;
57790;SDS011;43621;51.798;21.588;2023-05-07T17:02:29;5.40;;;2.50;;
57790;SDS011;43621;51.798;21.588;2023-05-07T17:06:30;12.70;;;7.50;;
57790;SDS011;43621;51.798;21.588;2023-05-07T17:10:31;7.30;;;3.00;;
57790;SDS011;43621;51.798;21.588;2023-05-07T17:14:32;7.80;;;4.10;;
57790;SDS011;43621;51.798;21.588;2023-05-07T17:18:33;7.80;;;4.10;;
57790;SDS011;43621;51.798;21.588;2023-05-07T17:22:35;8.50;;;3.70;;
57790;SDS011;43621;51.798;21.588;2023-05-07T17:26:36;7.40;;;4.00;;
57790;SDS011;43621;51.798;21.588;2023-05-07T17:30:38;16.90;;;6.80;;
57790;SDS011;43621;51.798;21.588;2023-05-07T17:34:40;15.70;;;7.60;;
57790;SDS011;43621;51.798;21.588;2023-05-07T17:38:41;20.90;;;8.20;;
57790;SDS011;43621;51.798;21.588;2023-05-07T17:42:42;20.80;;;9.30;;
57790;SDS011;43621;51.798;21.588;2023-05-07T17:46:43;21.90;;;8.20;;
57790;SDS011;43621;51.798;21.588;2023-05-07T17:50:45;79.70;;;24.50;;
57790;SDS011;43621;51.798;21.588;2023-05-07T17:54:46;46.70;;;14.90;;
57790;SDS011;43621;51.798;21.588;2023-05-07T17:58:47;42.90;;;19.70;;
57790;SDS011;43621;51.798;21.588;2023-05-07T18:02:50;30.80;;;15.10;;
57790;SDS011;43621;51.798;21.588;2023-05-07T18:06:52;36.00;;;15.60;;
57790;SDS011;43621;51.798;21.588;2023-05-07T18:10:53;126.40;;;42.10;;
57790;SDS011;43621;51.798;21.588;2023-05-07T18:14:54;66.80;;;28.90;;
57790;SDS011;43621;51.798;21.588;2023-05-07T18:18:55;69.60;;;34.60;;
57790;SDS011;43621;51.798;21.588;2023-05-07T18:22:56;100.50;;;46.10;;
57790;SDS011;43621;51.798;21.588;2023-05-07T18:26:58;114.20;;;46.40;;
57790;SDS011;43621;51.798;21.588;2023-05-07T18:30:59;100.30;;;41.20;;
57790;SDS011;43621;51.798;21.588;2023-05-07T18:35:40;68.60;;;31.20;;
57790;SDS011;43621;51.798;21.588;2023-05-07T18:39:41;40.60;;;19.80;;
57790;SDS011;43621;51.798;21.588;2023-05-07T18:43:46;44.50;;;22.20;;
57790;SDS011;43621;51.798;21.588;2023-05-07T18:47:47;42.30;;;20.30;;
57790;SDS011;43621;51.798;21.588;2023-05-07T18:51:48;146.80;;;45.80;;
57790;SDS011;43621;51.798;21.588;2023-05-07T18:55:50;54.60;;;20.40;;
57790;SDS011;43621;51.798;21.588;2023-05-07T18:59:52;55.10;;;23.30;;
57790;SDS011;43621;51.798;21.588;2023-05-07T19:03:54;35.30;;;17.10;;
57790;SDS011;43621;51.798;21.588;2023-05-07T19:07:55;23.80;;;12.20;;
57790;SDS011;43621;51.798;21.588;2023-05-07T19:11:57;21.30;;;9.90;;
57790;SDS011;43621;51.798;21.588;2023-05-07T19:15:58;13.20;;;7.30;;
57790;SDS011;43621;51.798;21.588;2023-05-07T19:19:59;15.30;;;9.00;;
57790;SDS011;43621;51.798;21.588;2023-05-07T19:24:00;12.90;;;9.00;;
57790;SDS011;43621;51.798;21.588;2023-05-07T19:28:01;11.80;;;7.00;;
57790;SDS011;43621;51.798;21.588;2023-05-07T19:32:02;13.50;;;8.00;;
57790;SDS011;43621;51.798;21.588;2023-05-07T19:36:05;16.20;;;8.20;;
57790;SDS011;43621;51.798;21.588;2023-05-07T19:40:06;22.90;;;11.40;;
57790;SDS011;43621;51.798;21.588;2023-05-07T19:44:09;16.20;;;8.10;;
57790;SDS011;43621;51.798;21.588;2023-05-07T19:48:11;12.50;;;6.70;;
57790;SDS011;43621;51.798;21.588;2023-05-07T19:52:13;12.20;;;7.40;;
57790;SDS011;43621;51.798;21.588;2023-05-07T19:56:14;11.70;;;6.20;;
57790;SDS011;43621;51.798;21.588;2023-05-07T20:00:16;13.60;;;8.00;;
57790;SDS011;43621;51.798;21.588;2023-05-07T20:04:17;15.00;;;7.90;;
57790;SDS011;43621;51.798;21.588;2023-05-07T20:08:18;17.50;;;7.60;;
57790;SDS011;43621;51.798;21.588;2023-05-07T20:12:19;23.80;;;11.20;;
57790;SDS011;43621;51.798;21.588;2023-05-07T20:16:21;16.40;;;8.00;;
57790;SDS011;43621;51.798;21.588;2023-05-07T20:20:22;11.70;;;6.40;;
57790;SDS011;43621;51.798;21.588;2023-05-07T20:24:24;13.60;;;7.50;;
57790;SDS011;43621;51.798;21.588;2023-05-07T20:28:25;11.10;;;5.90;;
57790;SDS011;43621;51.798;21.588;2023-05-07T20:32:26;36.50;;;14.60;;
57790;SDS011;43621;51.798;21.588;2023-05-07T20:36:27;15.20;;;7.40;;
57790;SDS011;43621;51.798;21.588;2023-05-07T20:40:28;12.60;;;7.40;;
57790;SDS011;43621;51.798;21.588;2023-05-07T20:44:32;17.30;;;9.00;;
57790;SDS011;43621;51.798;21.588;2023-05-07T20:48:33;16.40;;;8.30;;
57790;SDS011;43621;51.798;21.588;2023-05-07T20:52:35;10.80;;;6.60;;
57790;SDS011;43621;51.798;21.588;2023-05-07T20:56:36;12.90;;;6.40;;
57790;SDS011;43621;51.798;21.588;2023-05-07T21:00:37;11.30;;;6.10;;
57790;SDS011;43621;51.798;21.588;2023-05-07T21:04:39;11.60;;;5.90;;
57790;SDS011;43621;51.798;21.588;2023-05-07T21:08:40;11.40;;;5.80;;
57790;SDS011;43621;51.798;21.588;2023-05-07T21:12:41;7.60;;;4.90;;
57790;SDS011;43621;51.798;21.588;2023-05-07T21:16:42;8.00;;;4.20;;
57790;SDS011;43621;51.798;21.588;2023-05-07T21:20:43;8.80;;;4.20;;
57790;SDS011;43621;51.798;21.588;2023-05-07T21:24:44;8.40;;;4.10;;
57790;SDS011;43621;51.798;21.588;2023-05-07T21:28:45;8.80;;;4.10;;
57790;SDS011;43621;51.798;21.588;2023-05-07T21:32:47;8.00;;;3.50;;
57790;SDS011;43621;51.798;21.588;2023-05-07T21:36:48;7.10;;;3.50;;
57790;SDS011;43621;51.798;21.588;2023-05-07T21:40:49;11.20;;;5.50;;
57790;SDS011;43621;51.798;21.588;2023-05-07T21:44:50;7.70;;;4.10;;
57790;SDS011;43621;51.798;21.588;2023-05-07T21:48:51;7.60;;;3.90;;
57790;SDS011;43621;51.798;21.588;2023-05-07T21:52:52;7.70;;;4.50;;
57790;SDS011;43621;51.798;21.588;2023-05-07T21:56:53;11.90;;;6.60;;
57790;SDS011;43621;51.798;21.588;2023-05-07T22:00:54;8.20;;;3.90;;
57790;SDS011;43621;51.798;21.588;2023-05-07T22:04:55;10.80;;;4.50;;
57790;SDS011;43621;51.798;21.588;2023-05-07T22:08:56;6.70;;;3.40;;
57790;SDS011;43621;51.798;21.588;2023-05-07T22:12:57;9.50;;;4.70;;
57790;SDS011;43621;51.798;21.588;2023-05-07T22:16:58;6.80;;;3.50;;
57790;SDS011;43621;51.798;21.588;2023-05-07T22:20:59;6.40;;;3.50;;
57790;SDS011;43621;51.798;21.588;2023-05-07T22:25:01;8.20;;;3.70;;
57790;SDS011;43621;51.798;21.588;2023-05-07T22:29:02;5.70;;;3.10;;
57790;SDS011;43621;51.798;21.588;2023-05-07T22:33:03;8.30;;;4.30;;
57790;SDS011;43621;51.798;21.588;2023-05-07T22:37:04;8.30;;;3.50;;
57790;SDS011;43621;51.798;21.588;2023-05-07T22:41:05;7.00;;;3.40;;
57790;SDS011;43621;51.798;21.588;2023-05-07T22:45:06;7.40;;;3.30;;
57790;SDS011;43621;51.798;21.588;2023-05-07T22:49:08;7.70;;;3.70;;
57790;SDS011;43621;51.798;21.588;2023-05-07T22:53:09;10.70;;;4.10;;
57790;SDS011;43621;51.798;21.588;2023-05-07T22:57:10;6.10;;;3.10;;
57790;SDS011;43621;51.798;21.588;2023-05-07T23:01:12;5.70;;;3.30;;
57790;SDS011;43621;51.798;21.588;2023-05-07T23:05:14;7.00;;;3.30;;
57790;SDS011;43621;51.798;21.588;2023-05-07T23:09:17;6.70;;;3.70;;
57790;SDS011;43621;51.798;21.588;2023-05-07T23:13:18;7.30;;;3.80;;
57790;SDS011;43621;51.798;21.588;2023-05-07T23:17:19;9.20;;;4.50;;
57790;SDS011;43621;51.798;21.588;2023-05-07T23:21:20;6.50;;;3.70;;
57790;SDS011;43621;51.798;21.588;2023-05-07T23:25:21;8.20;;;3.50;;
57790;SDS011;43621;51.798;21.588;2023-05-07T23:29:22;5.90;;;3.50;;
57790;SDS011;43621;51.798;21.588;2023-05-07T23:33:23;8.40;;;4.00;;
57790;SDS011;43621;51.798;21.588;2023-05-07T23:37:24;7.00;;;3.60;;
57790;SDS011;43621;51.798;21.588;2023-05-07T23:41:25;6.80;;;3.30;;
57790;SDS011;43621;51.798;21.588;2023-05-07T23:45:27;7.40;;;4.20;;
57790;SDS011;43621;51.798;21.588;2023-05-07T23:49:28;8.00;;;4.00;;
57790;SDS011;43621;51.798;21.588;2023-05-07T23:53:29;11.70;;;5.20;;